sensor_id;sensor_type;location;lat;lon;timestamp;pressure;altitude;pressure_sealevel;temperature;humidity
48862;BME280;34681;49.188;-0.374;2022-07-04T00:00:13;102010.97;;;18.99;57.10
48862;BME280;34681;49.188;-0.374;2022-07-04T00:02:41;102002.66;;;18.99;57.05
48862;BME280;34681;49.188;-0.374;2022-07-04T00:05:08;102004.38;;;19.08;56.90
48862;BME280;34681;49.188;-0.374;2022-07-04T00:07:39;101997.28;;;18.98;57.22
48862;BME280;34681;49.188;-0.374;2022-07-04T00:10:05;101995.88;;;18.94;57.21
48862;BME280;34681;49.188;-0.374;2022-07-04T00:12:31;101999.69;;;18.93;57.23
48862;BME280;34681;49.188;-0.374;2022-07-04T00:14:57;101999.00;;;18.91;57.28
48862;BME280;34681;49.188;-0.374;2022-07-04T00:17:22;102002.44;;;18.85;57.31
48862;BME280;34681;49.188;-0.374;2022-07-04T00:19:47;102000.03;;;18.82;57.38
48862;BME280;34681;49.188;-0.374;2022-07-04T00:22:13;102002.25;;;18.78;57.52
48862;BME280;34681;49.188;-0.374;2022-07-04T00:24:38;101996.88;;;18.76;57.77
48862;BME280;34681;49.188;-0.374;2022-07-04T00:27:04;101996.19;;;18.74;57.71
48862;BME280;34681;49.188;-0.374;2022-07-04T00:29:29;101993.06;;;18.77;57.76
48862;BME280;34681;49.188;-0.374;2022-07-04T00:31:55;101985.63;;;18.78;57.40
48862;BME280;34681;49.188;-0.374;2022-07-04T00:34:20;101984.25;;;18.74;57.31
48862;BME280;34681;49.188;-0.374;2022-07-04T00:36:46;101990.31;;;18.77;57.56
48862;BME280;34681;49.188;-0.374;2022-07-04T00:39:11;101986.81;;;18.67;57.68
48862;BME280;34681;49.188;-0.374;2022-07-04T00:41:36;101988.56;;;18.68;57.71
48862;BME280;34681;49.188;-0.374;2022-07-04T00:44:08;101988.50;;;18.60;57.79
48862;BME280;34681;49.188;-0.374;2022-07-04T00:46:33;101990.78;;;18.65;57.82
48862;BME280;34681;49.188;-0.374;2022-07-04T00:49:00;101986.06;;;18.57;57.85
48862;BME280;34681;49.188;-0.374;2022-07-04T00:51:26;101984.31;;;18.48;57.72
48862;BME280;34681;49.188;-0.374;2022-07-04T00:53:53;101992.94;;;18.45;57.87
48862;BME280;34681;49.188;-0.374;2022-07-04T00:56:20;101988.13;;;18.47;57.77
48862;BME280;34681;49.188;-0.374;2022-07-04T00:58:46;101988.44;;;18.44;57.71
48862;BME280;34681;49.188;-0.374;2022-07-04T01:01:11;101975.78;;;18.33;57.92
48862;BME280;34681;49.188;-0.374;2022-07-04T01:03:37;101975.91;;;18.23;58.24
48862;BME280;34681;49.188;-0.374;2022-07-04T01:06:02;101981.81;;;18.29;58.29
48862;BME280;34681;49.188;-0.374;2022-07-04T01:08:28;101980.28;;;18.34;58.05
48862;BME280;34681;49.188;-0.374;2022-07-04T01:10:54;101985.63;;;18.28;58.23
48862;BME280;34681;49.188;-0.374;2022-07-04T01:13:23;101986.13;;;18.23;58.13
48862;BME280;34681;49.188;-0.374;2022-07-04T01:15:49;101979.53;;;18.16;58.22
48862;BME280;34681;49.188;-0.374;2022-07-04T01:18:16;101981.06;;;18.10;58.47
48862;BME280;34681;49.188;-0.374;2022-07-04T01:20:42;101986.06;;;18.07;58.54
48862;BME280;34681;49.188;-0.374;2022-07-04T01:23:07;101988.84;;;18.07;58.60
48862;BME280;34681;49.188;-0.374;2022-07-04T01:25:33;101986.91;;;17.99;58.47
48862;BME280;34681;49.188;-0.374;2022-07-04T01:27:59;101982.38;;;17.98;58.33
48862;BME280;34681;49.188;-0.374;2022-07-04T01:30:26;101983.13;;;18.08;58.22
48862;BME280;34681;49.188;-0.374;2022-07-04T01:32:51;101981.06;;;18.10;58.17
48862;BME280;34681;49.188;-0.374;2022-07-04T01:35:17;101984.50;;;18.04;58.33
48862;BME280;34681;49.188;-0.374;2022-07-04T01:37:42;101980.66;;;17.97;58.50
48862;BME280;34681;49.188;-0.374;2022-07-04T01:40:08;101990.13;;;17.94;58.45
48862;BME280;34681;49.188;-0.374;2022-07-04T01:42:34;101982.66;;;17.87;58.92
48862;BME280;34681;49.188;-0.374;2022-07-04T01:44:59;101964.81;;;17.81;58.68
48862;BME280;34681;49.188;-0.374;2022-07-04T01:47:25;101966.94;;;17.87;58.47
48862;BME280;34681;49.188;-0.374;2022-07-04T01:49:50;101973.47;;;17.86;58.32
48862;BME280;34681;49.188;-0.374;2022-07-04T01:52:15;101973.59;;;17.77;58.75
48862;BME280;34681;49.188;-0.374;2022-07-04T01:54:41;101971.78;;;17.67;59.30
48862;BME280;34681;49.188;-0.374;2022-07-04T01:57:07;101970.41;;;17.63;59.20
48862;BME280;34681;49.188;-0.374;2022-07-04T01:59:32;101964.88;;;17.63;59.14
48862;BME280;34681;49.188;-0.374;2022-07-04T02:02:17;101973.47;;;17.60;59.02
48862;BME280;34681;49.188;-0.374;2022-07-04T02:04:42;101967.06;;;17.60;59.12
48862;BME280;34681;49.188;-0.374;2022-07-04T02:07:08;101964.00;;;17.63;58.80
48862;BME280;34681;49.188;-0.374;2022-07-04T02:09:33;101958.59;;;17.61;59.00
48862;BME280;34681;49.188;-0.374;2022-07-04T02:11:59;101954.06;;;17.52;59.32
48862;BME280;34681;49.188;-0.374;2022-07-04T02:14:43;101957.69;;;17.53;59.25
48862;BME280;34681;49.188;-0.374;2022-07-04T02:17:10;101954.38;;;17.49;59.25
48862;BME280;34681;49.188;-0.374;2022-07-04T02:19:35;101957.03;;;17.59;58.98
48862;BME280;34681;49.188;-0.374;2022-07-04T02:22:01;101953.00;;;17.53;59.01
48862;BME280;34681;49.188;-0.374;2022-07-04T02:24:26;101956.59;;;17.46;59.25
48862;BME280;34681;49.188;-0.374;2022-07-04T02:26:52;101957.16;;;17.49;59.13
48862;BME280;34681;49.188;-0.374;2022-07-04T02:29:17;101948.00;;;17.49;58.95
48862;BME280;34681;49.188;-0.374;2022-07-04T02:31:43;101950.75;;;17.49;58.87
48862;BME280;34681;49.188;-0.374;2022-07-04T02:34:08;101947.28;;;17.47;59.07
48862;BME280;34681;49.188;-0.374;2022-07-04T02:36:34;101946.47;;;17.54;58.79
48862;BME280;34681;49.188;-0.374;2022-07-04T02:39:00;101944.56;;;17.55;58.79
48862;BME280;34681;49.188;-0.374;2022-07-04T02:41:25;101945.28;;;17.57;58.67
48862;BME280;34681;49.188;-0.374;2022-07-04T02:43:51;101945.38;;;17.47;58.85
48862;BME280;34681;49.188;-0.374;2022-07-04T02:46:17;101943.22;;;17.33;58.92
48862;BME280;34681;49.188;-0.374;2022-07-04T02:48:42;101954.97;;;17.35;59.30
48862;BME280;34681;49.188;-0.374;2022-07-04T02:51:07;101948.91;;;17.31;59.21
48862;BME280;34681;49.188;-0.374;2022-07-04T02:53:33;101947.66;;;17.26;59.04
48862;BME280;34681;49.188;-0.374;2022-07-04T02:55:58;101949.88;;;17.22;59.20
48862;BME280;34681;49.188;-0.374;2022-07-04T02:58:23;101941.88;;;17.19;59.30
48862;BME280;34681;49.188;-0.374;2022-07-04T03:00:49;101942.50;;;17.31;59.15
48862;BME280;34681;49.188;-0.374;2022-07-04T03:03:14;101948.22;;;17.37;58.99
48862;BME280;34681;49.188;-0.374;2022-07-04T03:05:40;101946.91;;;17.41;58.80
48862;BME280;34681;49.188;-0.374;2022-07-04T03:08:05;101947.38;;;17.37;58.86
48862;BME280;34681;49.188;-0.374;2022-07-04T03:10:30;101952.84;;;17.29;59.07
48862;BME280;34681;49.188;-0.374;2022-07-04T03:12:56;101947.97;;;17.23;59.26
48862;BME280;34681;49.188;-0.374;2022-07-04T03:15:21;101944.19;;;17.24;59.14
48862;BME280;34681;49.188;-0.374;2022-07-04T03:17:47;101941.25;;;17.25;59.15
48862;BME280;34681;49.188;-0.374;2022-07-04T03:20:12;101945.53;;;17.20;59.43
48862;BME280;34681;49.188;-0.374;2022-07-04T03:22:37;101942.84;;;17.10;59.50
48862;BME280;34681;49.188;-0.374;2022-07-04T03:25:03;101942.84;;;17.10;59.44
48862;BME280;34681;49.188;-0.374;2022-07-04T03:27:30;101958.19;;;17.04;59.59
48862;BME280;34681;49.188;-0.374;2022-07-04T03:29:55;101956.44;;;17.03;59.81
48862;BME280;34681;49.188;-0.374;2022-07-04T03:32:21;101956.31;;;17.05;59.95
48862;BME280;34681;49.188;-0.374;2022-07-04T03:34:46;101960.72;;;17.16;59.95
48862;BME280;34681;49.188;-0.374;2022-07-04T03:37:11;101955.00;;;17.17;59.72
48862;BME280;34681;49.188;-0.374;2022-07-04T03:39:37;101956.91;;;17.17;59.93
48862;BME280;34681;49.188;-0.374;2022-07-04T03:42:02;101950.53;;;17.16;59.74
48862;BME280;34681;49.188;-0.374;2022-07-04T03:44:28;101955.66;;;17.11;59.92
48862;BME280;34681;49.188;-0.374;2022-07-04T03:46:53;101961.19;;;17.11;59.65
48862;BME280;34681;49.188;-0.374;2022-07-04T03:49:18;101968.25;;;17.05;59.60
48862;BME280;34681;49.188;-0.374;2022-07-04T03:51:44;101960.25;;;17.02;59.64
48862;BME280;34681;49.188;-0.374;2022-07-04T03:54:09;101962.84;;;16.86;60.00
48862;BME280;34681;49.188;-0.374;2022-07-04T03:56:34;101960.88;;;16.78;60.24
48862;BME280;34681;49.188;-0.374;2022-07-04T03:59:00;101959.19;;;16.68;60.47
48862;BME280;34681;49.188;-0.374;2022-07-04T04:01:25;101952.59;;;16.78;60.23
48862;BME280;34681;49.188;-0.374;2022-07-04T04:03:51;101951.56;;;16.79;60.09
48862;BME280;34681;49.188;-0.374;2022-07-04T04:06:35;101965.25;;;16.81;60.22
48862;BME280;34681;49.188;-0.374;2022-07-04T04:09:00;101965.09;;;16.82;60.47
48862;BME280;34681;49.188;-0.374;2022-07-04T04:11:25;101965.09;;;16.82;60.64
48862;BME280;34681;49.188;-0.374;2022-07-04T04:13:51;101970.69;;;16.91;60.59
48862;BME280;34681;49.188;-0.374;2022-07-04T04:16:16;101975.97;;;17.02;60.48
48862;BME280;34681;49.188;-0.374;2022-07-04T04:18:41;101983.19;;;17.21;60.06
48862;BME280;34681;49.188;-0.374;2022-07-04T04:21:07;101988.50;;;17.58;59.22
48862;BME280;34681;49.188;-0.374;2022-07-04T04:23:32;101992.03;;;17.68;59.01
48862;BME280;34681;49.188;-0.374;2022-07-04T04:25:58;102000.16;;;17.87;58.31
48862;BME280;34681;49.188;-0.374;2022-07-04T04:28:23;101999.13;;;17.88;57.69
48862;BME280;34681;49.188;-0.374;2022-07-04T04:30:50;102000.00;;;17.89;57.60
48862;BME280;34681;49.188;-0.374;2022-07-04T04:33:15;101998.22;;;17.80;57.61
48862;BME280;34681;49.188;-0.374;2022-07-04T04:35:41;102002.56;;;17.64;58.08
48862;BME280;34681;49.188;-0.374;2022-07-04T04:38:06;102008.34;;;17.53;58.20
48862;BME280;34681;49.188;-0.374;2022-07-04T04:40:32;102001.66;;;17.56;57.75
48862;BME280;34681;49.188;-0.374;2022-07-04T04:42:57;102007.38;;;17.62;57.75
48862;BME280;34681;49.188;-0.374;2022-07-04T04:45:22;102000.50;;;17.66;57.38
48862;BME280;34681;49.188;-0.374;2022-07-04T04:47:48;101997.03;;;17.64;57.43
48862;BME280;34681;49.188;-0.374;2022-07-04T04:50:13;102006.53;;;17.80;57.31
48862;BME280;34681;49.188;-0.374;2022-07-04T04:52:40;101999.16;;;17.71;57.49
48862;BME280;34681;49.188;-0.374;2022-07-04T04:55:07;102005.34;;;17.64;57.67
48862;BME280;34681;49.188;-0.374;2022-07-04T04:57:33;102006.91;;;17.67;57.61
48862;BME280;34681;49.188;-0.374;2022-07-04T04:59:58;102010.16;;;17.80;57.47
48862;BME280;34681;49.188;-0.374;2022-07-04T05:02:24;102012.97;;;17.88;57.33
48862;BME280;34681;49.188;-0.374;2022-07-04T05:04:49;102008.59;;;17.86;57.20
48862;BME280;34681;49.188;-0.374;2022-07-04T05:07:15;102009.91;;;18.00;57.35
48862;BME280;34681;49.188;-0.374;2022-07-04T05:09:40;102014.22;;;18.36;56.54
48862;BME280;34681;49.188;-0.374;2022-07-04T05:12:06;102017.16;;;18.77;56.08
48862;BME280;34681;49.188;-0.374;2022-07-04T05:14:31;102011.84;;;19.24;55.42
48862;BME280;34681;49.188;-0.374;2022-07-04T05:16:57;102021.03;;;19.82;54.62
48862;BME280;34681;49.188;-0.374;2022-07-04T05:19:22;102020.09;;;20.84;53.28
48862;BME280;34681;49.188;-0.374;2022-07-04T05:21:47;102033.69;;;22.38;50.98
48862;BME280;34681;49.188;-0.374;2022-07-04T05:24:13;102026.25;;;23.75;48.51
48862;BME280;34681;49.188;-0.374;2022-07-04T05:26:38;102033.13;;;24.83;46.43
48862;BME280;34681;49.188;-0.374;2022-07-04T05:29:04;102024.44;;;25.52;44.83
48862;BME280;34681;49.188;-0.374;2022-07-04T05:31:29;102031.75;;;26.06;43.25
48862;BME280;34681;49.188;-0.374;2022-07-04T05:33:55;102032.75;;;26.51;41.59
48862;BME280;34681;49.188;-0.374;2022-07-04T05:36:24;102038.69;;;26.81;40.05
48862;BME280;34681;49.188;-0.374;2022-07-04T05:38:50;102039.00;;;27.05;39.68
48862;BME280;34681;49.188;-0.374;2022-07-04T05:41:16;102042.34;;;27.20;38.67
48862;BME280;34681;49.188;-0.374;2022-07-04T05:43:41;102037.78;;;27.26;38.47
48862;BME280;34681;49.188;-0.374;2022-07-04T05:46:28;102040.19;;;27.22;37.96
48862;BME280;34681;49.188;-0.374;2022-07-04T05:48:54;102035.72;;;27.14;38.23
48862;BME280;34681;49.188;-0.374;2022-07-04T05:51:20;102041.59;;;27.06;38.06
48862;BME280;34681;49.188;-0.374;2022-07-04T05:53:45;102046.41;;;26.86;38.40
48862;BME280;34681;49.188;-0.374;2022-07-04T05:56:10;102043.22;;;26.76;38.83
48862;BME280;34681;49.188;-0.374;2022-07-04T05:58:36;102036.16;;;26.60;39.09
48862;BME280;34681;49.188;-0.374;2022-07-04T06:01:01;102045.50;;;26.47;39.36
48862;BME280;34681;49.188;-0.374;2022-07-04T06:03:27;102044.00;;;26.38;39.67
48862;BME280;34681;49.188;-0.374;2022-07-04T06:05:53;102049.41;;;26.40;40.36
48862;BME280;34681;49.188;-0.374;2022-07-04T06:08:18;102042.91;;;26.46;40.32
48862;BME280;34681;49.188;-0.374;2022-07-04T06:10:45;102053.72;;;26.49;40.59
48862;BME280;34681;49.188;-0.374;2022-07-04T06:13:11;102046.94;;;26.63;40.51
48862;BME280;34681;49.188;-0.374;2022-07-04T06:15:36;102047.56;;;26.72;40.60
48862;BME280;34681;49.188;-0.374;2022-07-04T06:18:02;102055.06;;;26.84;39.92
48862;BME280;34681;49.188;-0.374;2022-07-04T06:20:28;102053.06;;;26.98;39.62
48862;BME280;34681;49.188;-0.374;2022-07-04T06:22:54;102052.59;;;27.08;39.45
48862;BME280;34681;49.188;-0.374;2022-07-04T06:25:19;102050.16;;;27.18;39.28
48862;BME280;34681;49.188;-0.374;2022-07-04T06:27:47;102043.00;;;27.22;39.35
48862;BME280;34681;49.188;-0.374;2022-07-04T06:30:13;102041.38;;;27.39;39.43
48862;BME280;34681;49.188;-0.374;2022-07-04T06:32:49;102041.22;;;27.59;38.55
48862;BME280;34681;49.188;-0.374;2022-07-04T06:35:21;102035.59;;;27.59;38.77
48862;BME280;34681;49.188;-0.374;2022-07-04T06:38:06;102035.91;;;27.76;38.31
48862;BME280;34681;49.188;-0.374;2022-07-04T06:40:33;102031.09;;;27.83;38.47
48862;BME280;34681;49.188;-0.374;2022-07-04T06:42:59;102034.66;;;27.97;38.22
48862;BME280;34681;49.188;-0.374;2022-07-04T06:45:25;102035.78;;;28.14;38.03
48862;BME280;34681;49.188;-0.374;2022-07-04T06:47:51;102037.50;;;28.15;38.14
48862;BME280;34681;49.188;-0.374;2022-07-04T06:50:16;102044.78;;;28.23;38.59
48862;BME280;34681;49.188;-0.374;2022-07-04T06:52:43;102040.59;;;28.32;38.22
48862;BME280;34681;49.188;-0.374;2022-07-04T06:55:08;102042.06;;;28.35;38.05
48862;BME280;34681;49.188;-0.374;2022-07-04T06:57:34;102041.69;;;28.49;38.34
48862;BME280;34681;49.188;-0.374;2022-07-04T06:59:59;102049.56;;;28.59;38.02
48862;BME280;34681;49.188;-0.374;2022-07-04T07:02:25;102048.94;;;28.75;37.54
48862;BME280;34681;49.188;-0.374;2022-07-04T07:04:51;102051.66;;;28.82;37.57
48862;BME280;34681;49.188;-0.374;2022-07-04T07:07:16;102045.84;;;29.14;37.05
48862;BME280;34681;49.188;-0.374;2022-07-04T07:09:41;102046.63;;;29.02;36.34
48862;BME280;34681;49.188;-0.374;2022-07-04T07:12:07;102048.84;;;29.00;36.90
48862;BME280;34681;49.188;-0.374;2022-07-04T07:14:32;102057.81;;;29.09;36.42
48862;BME280;34681;49.188;-0.374;2022-07-04T07:16:58;102054.06;;;29.15;36.18
48862;BME280;34681;49.188;-0.374;2022-07-04T07:19:24;102043.94;;;29.37;36.08
48862;BME280;34681;49.188;-0.374;2022-07-04T07:21:50;102049.31;;;29.69;35.60
48862;BME280;34681;49.188;-0.374;2022-07-04T07:24:15;102054.13;;;29.92;35.29
48862;BME280;34681;49.188;-0.374;2022-07-04T07:26:40;102047.28;;;30.11;34.75
48862;BME280;34681;49.188;-0.374;2022-07-04T07:29:06;102043.63;;;30.23;34.28
48862;BME280;34681;49.188;-0.374;2022-07-04T07:31:31;102053.88;;;29.82;35.13
48862;BME280;34681;49.188;-0.374;2022-07-04T07:33:57;102048.41;;;30.22;35.30
48862;BME280;34681;49.188;-0.374;2022-07-04T07:36:22;102049.72;;;30.43;33.56
48862;BME280;34681;49.188;-0.374;2022-07-04T07:38:48;102048.78;;;30.14;33.87
48862;BME280;34681;49.188;-0.374;2022-07-04T07:41:13;102045.28;;;30.70;33.15
48862;BME280;34681;49.188;-0.374;2022-07-04T07:43:39;102063.31;;;31.10;33.28
48862;BME280;34681;49.188;-0.374;2022-07-04T07:46:06;102061.22;;;31.45;32.11
48862;BME280;34681;49.188;-0.374;2022-07-04T07:48:32;102060.97;;;31.64;31.00
48862;BME280;34681;49.188;-0.374;2022-07-04T08:11:43;102069.47;;;33.94;26.52
48862;BME280;34681;49.188;-0.374;2022-07-04T08:14:08;102065.59;;;34.48;26.71
48862;BME280;34681;49.188;-0.374;2022-07-04T08:16:34;102057.63;;;35.07;26.32
48862;BME280;34681;49.188;-0.374;2022-07-04T08:18:59;102072.88;;;35.94;25.62
48862;BME280;34681;49.188;-0.374;2022-07-04T08:21:25;102070.59;;;35.76;25.40
48862;BME280;34681;49.188;-0.374;2022-07-04T08:23:50;102065.19;;;35.59;25.64
48862;BME280;34681;49.188;-0.374;2022-07-04T08:26:16;102060.31;;;37.11;24.36
48862;BME280;34681;49.188;-0.374;2022-07-04T08:28:41;102050.59;;;38.77;22.52
48862;BME280;34681;49.188;-0.374;2022-07-04T08:31:06;102063.50;;;39.74;22.04
48862;BME280;34681;49.188;-0.374;2022-07-04T08:33:32;102052.56;;;37.66;23.46
48862;BME280;34681;49.188;-0.374;2022-07-04T08:35:57;102054.66;;;34.29;25.17
48862;BME280;34681;49.188;-0.374;2022-07-04T08:38:24;102045.88;;;32.25;27.99
48862;BME280;34681;49.188;-0.374;2022-07-04T08:40:51;102046.69;;;30.85;29.51
48862;BME280;34681;49.188;-0.374;2022-07-04T08:43:31;102045.69;;;33.68;26.64
48862;BME280;34681;49.188;-0.374;2022-07-04T08:46:06;102053.22;;;34.74;24.45
48862;BME280;34681;49.188;-0.374;2022-07-04T08:48:41;102053.81;;;34.81;25.15
48862;BME280;34681;49.188;-0.374;2022-07-04T08:51:22;102051.72;;;33.23;27.39
48862;BME280;34681;49.188;-0.374;2022-07-04T08:53:50;102043.66;;;31.60;28.89
48862;BME280;34681;49.188;-0.374;2022-07-04T08:56:23;102037.00;;;30.29;29.65
48862;BME280;34681;49.188;-0.374;2022-07-04T08:59:11;102042.97;;;29.44;31.00
48862;BME280;34681;49.188;-0.374;2022-07-04T09:01:48;102039.75;;;30.52;29.99
48862;BME280;34681;49.188;-0.374;2022-07-04T09:04:13;102043.78;;;31.08;29.58
48862;BME280;34681;49.188;-0.374;2022-07-04T09:06:39;102044.72;;;31.25;29.19
48862;BME280;34681;49.188;-0.374;2022-07-04T09:09:06;102041.50;;;33.22;28.17
48862;BME280;34681;49.188;-0.374;2022-07-04T09:11:33;102048.09;;;33.28;27.94
48862;BME280;34681;49.188;-0.374;2022-07-04T09:13:58;102048.88;;;31.51;28.98
48862;BME280;34681;49.188;-0.374;2022-07-04T09:16:24;102044.81;;;30.50;30.62
48862;BME280;34681;49.188;-0.374;2022-07-04T09:18:52;102041.09;;;29.68;31.27
48862;BME280;34681;49.188;-0.374;2022-07-04T09:21:18;102039.69;;;29.05;31.99
48862;BME280;34681;49.188;-0.374;2022-07-04T09:23:43;102036.56;;;28.95;32.57
48862;BME280;34681;49.188;-0.374;2022-07-04T09:26:21;102042.91;;;33.19;27.96
48862;BME280;34681;49.188;-0.374;2022-07-04T09:28:52;102050.41;;;32.65;26.78
48862;BME280;34681;49.188;-0.374;2022-07-04T09:31:20;102040.00;;;31.02;28.58
48862;BME280;34681;49.188;-0.374;2022-07-04T09:33:53;102033.03;;;29.83;30.43
48862;BME280;34681;49.188;-0.374;2022-07-04T09:36:23;102032.28;;;28.74;32.00
48862;BME280;34681;49.188;-0.374;2022-07-04T09:41:57;102028.69;;;28.48;32.18
48862;BME280;34681;49.188;-0.374;2022-07-04T09:44:25;102044.63;;;31.09;29.53
48862;BME280;34681;49.188;-0.374;2022-07-04T09:46:51;102041.25;;;31.69;28.29
48862;BME280;34681;49.188;-0.374;2022-07-04T09:49:18;102046.56;;;30.91;29.06
48862;BME280;34681;49.188;-0.374;2022-07-04T09:51:51;102046.44;;;30.23;30.44
48862;BME280;34681;49.188;-0.374;2022-07-04T09:54:27;102046.78;;;29.79;31.33
48862;BME280;34681;49.188;-0.374;2022-07-04T09:56:58;102039.81;;;29.40;31.90
48862;BME280;34681;49.188;-0.374;2022-07-04T09:59:25;102044.22;;;29.06;32.07
48862;BME280;34681;49.188;-0.374;2022-07-04T10:02:11;102046.41;;;28.86;32.43
48862;BME280;34681;49.188;-0.374;2022-07-04T10:04:42;102041.34;;;28.76;32.73
48862;BME280;34681;49.188;-0.374;2022-07-04T10:07:08;102049.00;;;28.69;32.83
48862;BME280;34681;49.188;-0.374;2022-07-04T10:09:34;102042.69;;;28.12;32.56
48862;BME280;34681;49.188;-0.374;2022-07-04T10:11:59;102043.41;;;27.57;33.99
48862;BME280;34681;49.188;-0.374;2022-07-04T10:14:27;102041.66;;;27.31;34.19
48862;BME280;34681;49.188;-0.374;2022-07-04T10:16:52;102046.28;;;27.12;34.47
48862;BME280;34681;49.188;-0.374;2022-07-04T10:19:18;102042.91;;;27.04;34.37
48862;BME280;34681;49.188;-0.374;2022-07-04T10:21:45;102047.34;;;27.18;34.73
48862;BME280;34681;49.188;-0.374;2022-07-04T10:24:11;102045.44;;;27.43;34.47
48862;BME280;34681;49.188;-0.374;2022-07-04T10:26:36;102040.31;;;27.65;34.64
48862;BME280;34681;49.188;-0.374;2022-07-04T10:29:02;102042.69;;;27.93;35.17
48862;BME280;34681;49.188;-0.374;2022-07-04T10:31:29;102041.63;;;27.88;34.20
48862;BME280;34681;49.188;-0.374;2022-07-04T10:33:56;102042.91;;;27.67;34.90
48862;BME280;34681;49.188;-0.374;2022-07-04T10:36:23;102036.16;;;27.43;35.48
48862;BME280;34681;49.188;-0.374;2022-07-04T10:39:05;102044.59;;;26.60;36.25
48862;BME280;34681;49.188;-0.374;2022-07-04T10:41:33;102043.75;;;26.53;37.24
48862;BME280;34681;49.188;-0.374;2022-07-04T10:44:05;102039.22;;;26.52;37.15
48862;BME280;34681;49.188;-0.374;2022-07-04T10:46:38;102033.84;;;26.44;37.06
48862;BME280;34681;49.188;-0.374;2022-07-04T10:49:17;102042.50;;;26.29;37.06
48862;BME280;34681;49.188;-0.374;2022-07-04T10:51:47;102042.09;;;26.25;36.87
48862;BME280;34681;49.188;-0.374;2022-07-04T10:54:20;102031.03;;;26.30;37.38
48862;BME280;34681;49.188;-0.374;2022-07-04T10:59:25;102035.44;;;26.00;38.44
48862;BME280;34681;49.188;-0.374;2022-07-04T11:04:44;102034.81;;;25.78;39.12
48862;BME280;34681;49.188;-0.374;2022-07-04T11:07:10;102030.91;;;25.53;38.52
48862;BME280;34681;49.188;-0.374;2022-07-04T11:09:36;102025.06;;;25.28;38.64
48862;BME280;34681;49.188;-0.374;2022-07-04T11:12:03;102024.94;;;24.88;39.30
48862;BME280;34681;49.188;-0.374;2022-07-04T11:14:38;102023.59;;;24.71;40.29
48862;BME280;34681;49.188;-0.374;2022-07-04T11:17:09;102023.41;;;24.79;41.05
48862;BME280;34681;49.188;-0.374;2022-07-04T11:19:36;102021.16;;;25.22;40.21
48862;BME280;34681;49.188;-0.374;2022-07-04T11:22:01;102023.34;;;25.53;40.29
48862;BME280;34681;49.188;-0.374;2022-07-04T11:24:27;102030.91;;;25.33;40.64
48862;BME280;34681;49.188;-0.374;2022-07-04T11:26:56;102022.81;;;24.97;39.74
48862;BME280;34681;49.188;-0.374;2022-07-04T11:29:22;102019.56;;;24.93;40.28
48862;BME280;34681;49.188;-0.374;2022-07-04T11:31:49;102022.44;;;25.13;41.03
48862;BME280;34681;49.188;-0.374;2022-07-04T11:34:15;102026.75;;;25.15;40.73
48862;BME280;34681;49.188;-0.374;2022-07-04T11:36:43;102031.53;;;25.35;40.27
48862;BME280;34681;49.188;-0.374;2022-07-04T11:39:13;102022.91;;;25.16;40.01
48862;BME280;34681;49.188;-0.374;2022-07-04T11:41:42;102022.47;;;25.19;40.54
48862;BME280;34681;49.188;-0.374;2022-07-04T11:44:29;102013.84;;;25.08;39.76
48862;BME280;34681;49.188;-0.374;2022-07-04T11:52:11;102019.22;;;25.09;40.88
48862;BME280;34681;49.188;-0.374;2022-07-04T11:54:39;102014.25;;;25.11;40.91
48862;BME280;34681;49.188;-0.374;2022-07-04T11:57:08;102018.38;;;25.09;40.52
48862;BME280;34681;49.188;-0.374;2022-07-04T11:59:34;102013.78;;;25.01;40.17
48862;BME280;34681;49.188;-0.374;2022-07-04T12:02:10;102024.44;;;24.71;40.74
48862;BME280;34681;49.188;-0.374;2022-07-04T12:04:36;102014.03;;;24.52;41.20
48862;BME280;34681;49.188;-0.374;2022-07-04T12:07:08;102006.31;;;24.54;41.41
48862;BME280;34681;49.188;-0.374;2022-07-04T12:09:42;102001.31;;;24.49;41.54
48862;BME280;34681;49.188;-0.374;2022-07-04T12:12:09;102003.84;;;24.37;41.21
48862;BME280;34681;49.188;-0.374;2022-07-04T12:14:35;102003.75;;;24.24;41.87
48862;BME280;34681;49.188;-0.374;2022-07-04T12:19:52;101992.59;;;24.31;42.26
48862;BME280;34681;49.188;-0.374;2022-07-04T12:22:32;101993.25;;;24.26;42.26
48862;BME280;34681;49.188;-0.374;2022-07-04T12:24:58;102002.66;;;24.19;43.07
48862;BME280;34681;49.188;-0.374;2022-07-04T12:27:25;101999.22;;;24.17;42.46
48862;BME280;34681;49.188;-0.374;2022-07-04T12:29:52;101985.25;;;24.23;42.62
48862;BME280;34681;49.188;-0.374;2022-07-04T12:32:18;101998.06;;;24.39;42.79
48862;BME280;34681;49.188;-0.374;2022-07-04T12:34:45;101985.38;;;24.43;42.59
48862;BME280;34681;49.188;-0.374;2022-07-04T12:37:12;101995.78;;;24.62;42.69
48862;BME280;34681;49.188;-0.374;2022-07-04T12:39:40;101984.72;;;24.34;41.96
48862;BME280;34681;49.188;-0.374;2022-07-04T12:44:36;101983.56;;;24.29;42.97
48862;BME280;34681;49.188;-0.374;2022-07-04T12:47:05;101980.13;;;23.92;43.60
48862;BME280;34681;49.188;-0.374;2022-07-04T12:49:32;101988.16;;;24.02;44.13
48862;BME280;34681;49.188;-0.374;2022-07-04T12:52:26;101981.84;;;24.28;44.05
48862;BME280;34681;49.188;-0.374;2022-07-04T12:55:06;101981.28;;;24.04;43.01
48862;BME280;34681;49.188;-0.374;2022-07-04T12:57:35;101989.19;;;23.94;43.30
48862;BME280;34681;49.188;-0.374;2022-07-04T13:00:00;101984.66;;;23.93;43.56
48862;BME280;34681;49.188;-0.374;2022-07-04T13:02:26;101976.22;;;23.87;43.93
48862;BME280;34681;49.188;-0.374;2022-07-04T13:04:51;101981.06;;;23.71;44.52
48862;BME280;34681;49.188;-0.374;2022-07-04T13:07:17;101983.84;;;23.71;44.26
48862;BME280;34681;49.188;-0.374;2022-07-04T13:09:45;101971.31;;;23.61;45.42
48862;BME280;34681;49.188;-0.374;2022-07-04T13:12:12;101974.88;;;23.82;45.34
48862;BME280;34681;49.188;-0.374;2022-07-04T13:14:54;101973.88;;;23.90;44.34
48862;BME280;34681;49.188;-0.374;2022-07-04T13:17:20;101975.03;;;23.74;44.17
48862;BME280;34681;49.188;-0.374;2022-07-04T13:19:46;101977.75;;;23.61;45.01